Time,TemperatureF,DewpointF,PressureIn,WindDirection,WindDirectionDegrees,WindSpeedMPH,WindSpeedGustMPH,Humidity,HourlyPrecipIn,Conditions,Clouds,dailyrainin,SolarRadiationWatts/m^2,SoftwareType,DateUTC
2013-03-05 00:02:00,65.0,36.0,30.03,ENE,72,4.0,10.0,33,-99.99,,,-99.99,0.000000,,2013-03-05 08:02:00,
2013-03-05 00:11:00,62.0,41.0,30.03,ENE,75,4.0,7.0,47,-99.99,,,-99.99,0.000000,,2013-03-05 08:11:00,
2013-03-05 00:21:00,62.0,42.0,30.03,East,80,3.0,5.0,48,-99.99,,,-99.99,0.000000,,2013-03-05 08:21:00,
2013-03-05 00:31:00,62.0,42.0,30.03,East,80,3.0,5.0,48,-99.99,,,-99.99,0.000000,,2013-03-05 08:31:00,
2013-03-05 00:41:00,62.0,42.0,30.03,East,80,3.0,5.0,48,-99.99,,,-99.99,0.000000,,2013-03-05 08:41:00,
2013-03-05 00:52:00,59.0,41.0,30.03,NE,34,1.0,2.0,50,-99.99,,,-99.99,0.000000,,2013-03-05 08:52:00,
2013-03-05 01:01:00,59.0,41.0,30.03,SW,236,1.0,2.0,52,-99.99,,,-99.99,0.000000,,2013-03-05 09:01:00,
2013-03-05 01:11:00,60.0,40.0,30.03,SSW,200,1.0,5.0,48,-99.99,,,-99.99,0.000000,,2013-03-05 09:11:00,
2013-03-05 01:21:00,60.0,40.0,30.03,SSW,200,1.0,5.0,48,-99.99,,,-99.99,0.000000,,2013-03-05 09:21:00,
2013-03-05 01:31:00,60.0,39.0,30.02,ENE,61,0.0,1.0,47,-99.99,,,-99.99,0.000000,,2013-03-05 09:31:00,
2013-03-05 01:42:00,60.0,40.0,30.02,NW,310,1.0,3.0,47,-99.99,,,-99.99,0.000000,,2013-03-05 09:42:00,
2013-03-05 01:51:00,60.0,37.0,30.02,SW,223,0.0,1.0,43,-99.99,,,-99.99,0.000000,,2013-03-05 09:51:00,
2013-03-05 02:01:00,60.0,37.0,30.02,SW,223,0.0,1.0,43,-99.99,,,-99.99,0.000000,,2013-03-05 10:01:00,
2013-03-05 02:11:00,61.0,35.0,30.02,South,175,2.0,5.0,37,-99.99,,,-99.99,0.000000,,2013-03-05 10:11:00,
2013-03-05 02:21:00,64.0,31.0,30.02,SSW,198,4.0,8.0,29,-99.99,,,-99.99,0.000000,,2013-03-05 10:21:00,
2013-03-05 02:42:00,65.0,31.0,30.02,South,187,4.0,8.0,28,-99.99,,,-99.99,0.000000,,2013-03-05 10:42:00,
2013-03-05 02:51:00,65.0,29.0,30.02,SSW,204,5.0,8.0,26,-99.99,,,-99.99,0.000000,,2013-03-05 10:51:00,
2013-03-05 03:01:00,65.0,29.0,30.02,SSW,208,6.0,10.0,26,-99.99,,,-99.99,0.000000,,2013-03-05 11:01:00,
2013-03-05 03:11:00,64.0,30.0,30.01,SSW,195,5.0,7.0,28,-99.99,,,-99.99,0.000000,,2013-03-05 11:11:00,
2013-03-05 03:22:00,64.0,30.0,30.01,SSW,195,5.0,7.0,28,-99.99,,,-99.99,0.000000,,2013-03-05 11:22:00,
2013-03-05 03:32:00,64.0,30.0,30.01,SSW,198,5.0,9.0,28,-99.99,,,-99.99,0.000000,,2013-03-05 11:32:00,
2013-03-05 03:41:00,64.0,30.0,30.00,South,190,5.0,8.0,28,-99.99,,,-99.99,0.000000,,2013-03-05 11:41:00,
2013-03-05 03:52:00,64.0,30.0,30.00,South,181,5.0,7.0,28,-99.99,,,-99.99,0.000000,,2013-03-05 11:52:00,
2013-03-05 04:02:00,64.0,30.0,30.00,South,176,5.0,8.0,28,-99.99,,,-99.99,0.000000,,2013-03-05 12:02:00,
2013-03-05 04:11:00,64.0,30.0,30.00,South,184,6.0,9.0,28,-99.99,,,-99.99,0.000000,,2013-03-05 12:11:00,
2013-03-05 04:22:00,64.0,30.0,30.00,South,184,6.0,9.0,28,-99.99,,,-99.99,0.000000,,2013-03-05 12:22:00,
2013-03-05 04:32:00,64.0,29.0,30.01,South,185,5.0,8.0,27,-99.99,,,-99.99,0.000000,,2013-03-05 12:32:00,
2013-03-05 05:01:00,63.0,29.0,30.01,South,184,5.0,8.0,27,-99.99,,,-99.99,0.000000,,2013-03-05 13:01:00,
2013-03-05 05:11:00,63.0,29.0,30.01,South,186,6.0,11.0,27,-99.99,,,-99.99,0.000000,,2013-03-05 13:11:00,
2013-03-05 05:21:00,64.0,28.0,30.01,SSW,200,6.0,11.0,26,-99.99,,,-99.99,0.000000,,2013-03-05 13:21:00,
2013-03-05 05:42:00,64.0,28.0,30.02,SSW,197,4.0,8.0,26,-99.99,,,-99.99,0.000000,,2013-03-05 13:42:00,
2013-03-05 05:52:00,63.0,29.0,30.02,SSW,198,4.0,8.0,27,-99.99,,,-99.99,0.000000,,2013-03-05 13:52:00,
2013-03-05 06:11:00,60.0,31.0,30.02,SSW,204,1.0,7.0,34,-99.99,,,-99.99,0.000000,,2013-03-05 14:11:00,
2013-03-05 06:21:00,60.0,32.0,30.02,ENE,58,2.0,7.0,34,-99.99,,,-99.99,0.000000,,2013-03-05 14:21:00,
2013-03-05 06:31:00,60.0,30.0,30.02,SE,145,1.0,5.0,32,-99.99,,,-99.99,0.000000,,2013-03-05 14:31:00,
2013-03-05 06:41:00,60.0,31.0,30.03,NNE,31,1.0,3.0,34,-99.99,,,-99.99,0.000000,,2013-03-05 14:41:00,
2013-03-05 06:52:00,60.0,29.0,30.02,ESE,109,0.0,2.0,31,-99.99,,,-99.99,0.000000,,2013-03-05 14:52:00,
2013-03-05 07:01:00,61.0,29.0,30.02,South,186,1.0,4.0,30,-99.99,,,-99.99,10.000000,,2013-03-05 15:01:00,
2013-03-05 07:11:00,61.0,29.0,30.03,South,180,3.0,5.0,30,-99.99,,,-99.99,20.000000,,2013-03-05 15:11:00,
2013-03-05 07:21:00,62.0,30.0,30.03,South,188,5.0,9.0,30,-99.99,,,-99.99,30.000000,,2013-03-05 15:21:00,
2013-03-05 07:31:00,63.0,29.0,30.04,SSW,211,7.0,12.0,27,-99.99,,,-99.99,40.000000,,2013-03-05 15:31:00,
2013-03-05 07:42:00,64.0,29.0,30.04,SW,215,9.0,13.0,26,-99.99,,,-99.99,60.000000,,2013-03-05 15:42:00,
2013-03-05 07:51:00,64.0,29.0,30.04,South,181,5.0,10.0,27,-99.99,,,-99.99,80.000000,,2013-03-05 15:51:00,
2013-03-05 08:01:00,65.0,29.0,30.05,SSE,158,4.0,8.0,26,-99.99,,,-99.99,90.000000,,2013-03-05 16:01:00,
2013-03-05 08:20:00,64.0,33.0,30.05,North,7,3.0,6.0,31,-99.99,,,-99.99,150.000000,,2013-03-05 16:20:00,
2013-03-05 08:21:00,65.0,29.0,30.05,South,170,2.0,4.0,26,-99.99,,,-99.99,120.000000,,2013-03-05 16:21:00,
2013-03-05 08:31:00,66.0,29.0,30.05,ESE,120,3.0,6.0,25,-99.99,,,-99.99,150.000000,,2013-03-05 16:31:00,
2013-03-05 08:51:00,64.0,33.0,30.05,North,7,3.0,6.0,31,-99.99,,,-99.99,150.000000,,2013-03-05 16:51:00,
2013-03-05 09:11:00,64.0,33.0,30.05,North,7,3.0,6.0,31,-99.99,,,-99.99,150.000000,,2013-03-05 17:11:00,
2013-03-05 09:32:00,64.0,34.0,30.06,ESE,105,1.0,2.0,32,-99.99,,,-99.99,230.000000,,2013-03-05 17:32:00,
2013-03-05 09:41:00,65.0,34.0,30.05,NNE,15,0.0,1.0,31,-99.99,,,-99.99,230.000000,,2013-03-05 17:41:00,
2013-03-05 09:52:00,66.0,34.0,30.05,NNE,18,1.0,1.0,30,-99.99,,,-99.99,300.000000,,2013-03-05 17:52:00,
2013-03-05 10:01:00,67.0,34.0,30.05,NNE,27,1.0,2.0,30,-99.99,,,-99.99,300.000000,,2013-03-05 18:01:00,
2013-03-05 10:10:00,70.0,34.0,30.05,ENE,77,3.0,5.0,27,-99.99,,,-99.99,430.000000,,2013-03-05 18:10:00,
2013-03-05 10:11:00,67.0,34.0,30.05,NW,308,0.0,2.0,29,-99.99,,,-99.99,320.000000,,2013-03-05 18:11:00,
2013-03-05 10:21:00,69.0,33.0,30.04,SSW,209,0.0,0.0,27,-99.99,,,-99.99,380.000000,,2013-03-05 18:21:00,
2013-03-05 10:31:00,70.0,34.0,30.04,East,83,2.0,6.0,26,-99.99,,,-99.99,550.000000,,2013-03-05 18:31:00,
2013-03-05 10:41:00,70.0,34.0,30.05,ENE,77,3.0,5.0,27,-99.99,,,-99.99,430.000000,,2013-03-05 18:41:00,
2013-03-05 10:52:00,70.0,34.0,30.05,ENE,77,3.0,5.0,27,-99.99,,,-99.99,430.000000,,2013-03-05 18:52:00,
2013-03-05 11:01:00,70.0,34.0,30.05,ENE,77,3.0,5.0,27,-99.99,,,-99.99,430.000000,,2013-03-05 19:01:00,
2013-03-05 11:32:00,71.0,36.0,30.03,ENE,67,6.0,9.0,28,-99.99,,,-99.99,610.000000,,2013-03-05 19:32:00,
2013-03-05 11:42:00,70.0,36.0,30.03,ENE,64,6.0,12.0,28,-99.99,,,-99.99,730.000000,,2013-03-05 19:42:00,
2013-03-05 11:51:00,71.0,36.0,30.03,NE,53,6.0,12.0,28,-99.99,,,-99.99,880.000000,,2013-03-05 19:51:00,
2013-03-05 12:01:00,71.0,36.0,30.03,NE,53,6.0,12.0,28,-99.99,,,-99.99,880.000000,,2013-03-05 20:01:00,
2013-03-05 12:11:00,71.0,37.0,30.01,ENE,60,10.0,19.0,29,-99.99,,,-99.99,850.000000,,2013-03-05 20:11:00,
2013-03-05 12:21:00,71.0,37.0,30.01,ENE,60,10.0,19.0,29,-99.99,,,-99.99,850.000000,,2013-03-05 20:21:00,
2013-03-05 12:32:00,71.0,37.0,30.01,ENE,58,10.0,15.0,29,-99.99,,,-99.99,880.000000,,2013-03-05 20:32:00,
2013-03-05 12:41:00,72.0,37.0,30.00,NE,56,10.0,17.0,28,-99.99,,,-99.99,870.000000,,2013-03-05 20:41:00,
2013-03-05 12:52:00,72.0,36.0,29.99,NE,48,9.0,15.0,27,-99.99,,,-99.99,860.000000,,2013-03-05 20:52:00,
2013-03-05 13:00:00,74.0,36.0,29.96,NE,40,7.0,12.0,25,-99.99,,,-99.99,810.000000,,2013-03-05 21:00:00,
2013-03-05 13:01:00,72.0,36.0,29.99,NE,48,9.0,15.0,27,-99.99,,,-99.99,860.000000,,2013-03-05 21:01:00,
2013-03-05 13:11:00,73.0,36.0,29.98,NE,42,7.0,17.0,26,-99.99,,,-99.99,820.000000,,2013-03-05 21:11:00,
2013-03-05 13:21:00,73.0,35.0,29.97,ENE,69,6.0,12.0,25,-99.99,,,-99.99,830.000000,,2013-03-05 21:21:00,
2013-03-05 13:31:00,74.0,36.0,29.96,NE,40,7.0,12.0,25,-99.99,,,-99.99,810.000000,,2013-03-05 21:31:00,
2013-03-05 13:41:00,74.0,36.0,29.96,NE,40,7.0,12.0,25,-99.99,,,-99.99,810.000000,,2013-03-05 21:41:00,
2013-03-05 13:52:00,74.0,36.0,29.96,NE,40,7.0,12.0,25,-99.99,,,-99.99,810.000000,,2013-03-05 21:52:00,
2013-03-05 14:21:00,74.0,35.0,29.94,NE,54,9.0,17.0,24,-99.99,,,-99.99,730.000000,,2013-03-05 22:21:00,
2013-03-05 14:32:00,75.0,36.0,29.94,NE,53,8.0,14.0,24,-99.99,,,-99.99,710.000000,,2013-03-05 22:32:00,
2013-03-05 14:41:00,75.0,34.0,29.93,ENE,59,8.0,15.0,23,-99.99,,,-99.99,690.000000,,2013-03-05 22:41:00,
2013-03-05 14:52:00,74.0,35.0,29.93,ENE,72,8.0,14.0,24,-99.99,,,-99.99,660.000000,,2013-03-05 22:52:00,
2013-03-05 15:01:00,75.0,35.0,29.93,ENE,58,8.0,18.0,24,-99.99,,,-99.99,640.000000,,2013-03-05 23:01:00,
2013-03-05 15:11:00,75.0,35.0,29.92,NE,46,8.0,13.0,23,-99.99,,,-99.99,610.000000,,2013-03-05 23:11:00,
2013-03-05 15:21:00,74.0,35.0,29.92,ENE,70,8.0,12.0,24,-99.99,,,-99.99,580.000000,,2013-03-05 23:21:00,
2013-03-05 15:32:00,75.0,35.0,29.92,ENE,57,5.0,12.0,24,-99.99,,,-99.99,550.000000,,2013-03-05 23:32:00,
2013-03-05 15:40:00,75.0,35.0,29.91,ENE,63,4.0,9.0,23,-99.99,,,-99.99,370.000000,,2013-03-05 23:40:00,
2013-03-05 15:41:00,75.0,35.0,29.92,NE,55,5.0,11.0,23,-99.99,,,-99.99,520.000000,,2013-03-05 23:41:00,
2013-03-05 15:52:00,75.0,35.0,29.92,ENE,64,5.0,8.0,23,-99.99,,,-99.99,440.000000,,2013-03-05 23:52:00,
2013-03-05 16:01:00,75.0,35.0,29.92,ENE,64,5.0,8.0,23,-99.99,,,-99.99,440.000000,,2013-03-06 00:01:00,
2013-03-05 16:11:00,75.0,35.0,29.91,ENE,63,4.0,9.0,23,-99.99,,,-99.99,370.000000,,2013-03-06 00:11:00,
2013-03-05 16:21:00,75.0,35.0,29.91,ENE,63,4.0,9.0,23,-99.99,,,-99.99,370.000000,,2013-03-06 00:21:00,
2013-03-05 16:32:00,75.0,35.0,29.91,ENE,63,4.0,9.0,23,-99.99,,,-99.99,370.000000,,2013-03-06 00:32:00,
2013-03-05 17:01:00,74.0,35.0,29.91,East,80,4.0,10.0,24,-99.99,,,-99.99,230.000000,,2013-03-06 01:01:00,
2013-03-05 17:11:00,74.0,35.0,29.91,East,80,4.0,10.0,24,-99.99,,,-99.99,230.000000,,2013-03-06 01:11:00,
2013-03-05 17:21:00,74.0,35.0,29.91,East,95,3.0,7.0,24,-99.99,,,-99.99,140.000000,,2013-03-06 01:21:00,
2013-03-05 17:31:00,73.0,35.0,29.91,East,94,4.0,9.0,25,-99.99,,,-99.99,40.000000,,2013-03-06 01:31:00,
2013-03-05 17:41:00,72.0,35.0,29.91,East,88,5.0,9.0,26,-99.99,,,-99.99,30.000000,,2013-03-06 01:41:00,
2013-03-05 17:51:00,71.0,36.0,29.92,ESE,108,3.0,6.0,28,-99.99,,,-99.99,10.000000,,2013-03-06 01:51:00,
2013-03-05 18:01:00,71.0,36.0,29.92,ESE,108,3.0,6.0,28,-99.99,,,-99.99,10.000000,,2013-03-06 02:01:00,
2013-03-05 18:11:00,71.0,36.0,29.92,WNW,284,2.0,4.0,27,-99.99,,,-99.99,10.000000,,2013-03-06 02:11:00,
2013-03-05 18:21:00,71.0,36.0,29.92,NNW,337,3.0,5.0,28,-99.99,,,-99.99,0.000000,,2013-03-06 02:21:00,
2013-03-05 18:31:00,71.0,33.0,29.92,East,84,3.0,6.0,25,-99.99,,,-99.99,0.000000,,2013-03-06 02:31:00,
2013-03-05 18:41:00,71.0,33.0,29.92,East,84,3.0,6.0,25,-99.99,,,-99.99,0.000000,,2013-03-06 02:41:00,
2013-03-05 18:52:00,71.0,33.0,29.92,East,84,3.0,6.0,25,-99.99,,,-99.99,0.000000,,2013-03-06 02:52:00,
2013-03-05 19:01:00,70.0,32.0,29.93,SSW,195,7.0,18.0,24,-99.99,,,-99.99,0.000000,,2013-03-06 03:01:00,
2013-03-05 19:11:00,70.0,32.0,29.93,SSW,204,8.0,21.0,24,-99.99,,,-99.99,0.000000,,2013-03-06 03:11:00,
2013-03-05 19:21:00,70.0,32.0,29.93,South,176,6.0,12.0,25,-99.99,,,-99.99,0.000000,,2013-03-06 03:21:00,
2013-03-05 19:31:00,70.0,33.0,29.94,SSE,167,8.0,13.0,26,-99.99,,,-99.99,0.000000,,2013-03-06 03:31:00,
2013-03-05 19:41:00,70.0,33.0,29.94,SSE,167,8.0,13.0,26,-99.99,,,-99.99,0.000000,,2013-03-06 03:41:00,
2013-03-05 19:52:00,69.0,33.0,29.94,South,185,8.0,12.0,26,-99.99,,,-99.99,0.000000,,2013-03-06 03:52:00,
2013-03-05 20:01:00,69.0,33.0,29.95,SSE,153,4.0,8.0,26,-99.99,,,-99.99,0.000000,,2013-03-06 04:01:00,
2013-03-05 20:11:00,68.0,38.0,29.95,North,355,3.0,7.0,34,-99.99,,,-99.99,0.000000,,2013-03-06 04:11:00,
2013-03-05 20:21:00,67.0,39.0,29.95,NNW,336,2.0,4.0,36,-99.99,,,-99.99,0.000000,,2013-03-06 04:21:00,
2013-03-05 20:31:00,66.0,39.0,29.95,NNE,26,2.0,4.0,37,-99.99,,,-99.99,0.000000,,2013-03-06 04:31:00,
2013-03-05 20:40:00,64.0,39.0,29.95,NNE,19,2.0,4.0,40,-99.99,,,-99.99,0.000000,,2013-03-06 04:40:00,
2013-03-05 20:41:00,66.0,39.0,29.95,NNE,26,2.0,4.0,37,-99.99,,,-99.99,0.000000,,2013-03-06 04:41:00,
2013-03-05 20:51:00,66.0,39.0,29.95,NNE,26,2.0,4.0,37,-99.99,,,-99.99,0.000000,,2013-03-06 04:51:00,
2013-03-05 21:01:00,65.0,39.0,29.95,NE,50,2.0,4.0,39,-99.99,,,-99.99,0.000000,,2013-03-06 05:01:00,
2013-03-05 21:11:00,64.0,39.0,29.95,NNE,19,2.0,4.0,40,-99.99,,,-99.99,0.000000,,2013-03-06 05:11:00,
2013-03-05 21:22:00,64.0,39.0,29.95,NNE,19,2.0,4.0,40,-99.99,,,-99.99,0.000000,,2013-03-06 05:22:00,
2013-03-05 21:32:00,64.0,39.0,29.95,NNE,19,2.0,4.0,40,-99.99,,,-99.99,0.000000,,2013-03-06 05:32:00,
2013-03-05 22:11:00,66.0,31.0,29.95,SSW,192,6.0,14.0,27,-99.99,,,-99.99,0.000000,,2013-03-06 06:11:00,
2013-03-05 22:22:00,63.0,41.0,29.95,East,80,4.0,9.0,44,-99.99,,,-99.99,0.000000,,2013-03-06 06:22:00,
2013-03-05 22:31:00,64.0,35.0,29.95,ESE,123,5.0,11.0,35,-99.99,,,-99.99,0.000000,,2013-03-06 06:31:00,
2013-03-05 22:41:00,64.0,35.0,29.95,ESE,123,5.0,11.0,35,-99.99,,,-99.99,0.000000,,2013-03-06 06:41:00,
2013-03-05 22:52:00,66.0,25.0,29.94,SSE,167,8.0,15.0,21,-99.99,,,-99.99,0.000000,,2013-03-06 06:52:00,
2013-03-05 23:01:00,66.0,25.0,29.94,SSE,167,8.0,15.0,21,-99.99,,,-99.99,0.000000,,2013-03-06 07:01:00,
2013-03-05 23:11:00,66.0,26.0,29.94,South,173,12.0,19.0,22,-99.99,,,-99.99,0.000000,,2013-03-06 07:11:00,
2013-03-05 23:22:00,66.0,26.0,29.94,South,173,12.0,19.0,22,-99.99,,,-99.99,0.000000,,2013-03-06 07:22:00,
2013-03-05 23:42:00,58.0,43.0,29.94,NNE,31,5.0,11.0,57,-99.99,,,-99.99,0.000000,,2013-03-06 07:42:00,
2013-03-05 23:52:00,58.0,43.0,29.94,NNE,31,5.0,11.0,57,-99.99,,,-99.99,0.000000,,2013-03-06 07:52:00,